Weather History for KBDH - September, 2012

Change the Weather History Date:

Friday, September 7, 2012

  Actual Average Record
Temperature  
Mean Temperature 60 °F -  
Max Temperature 69 °F - - ()
Min Temperature 48 °F - - ()
Degree Days  
Heating Degree Days 6    
Growing Degree Days 10 (Base 50)    
Moisture  
Dew Point 46 °F    
Average Humidity 59    
Maximum Humidity 88    
Minimum Humidity 30    
Precipitation  
Precipitation 0.00 in - - ()
Sea Level Pressure  
Sea Level Pressure 30.04 in    
Wind  
Wind Speed 11 mph (NNW)    
Max Wind Speed 23 mph    
Max Gust Speed 32 mph    
Visibility 10 miles    
Events Thunderstorm    
T = Trace of Precipitation, MM = Missing Value Source: NWS Daily Summary

Daily Weather History Graph

Daily Weather History Graph

Search for Another Location

Airport or City:

Trip Planner

Search our weather history database for the weather conditions in past years. The results will help you decide how hot, cold, wet, or windy it might be!

Date:

Astronomy

Sep. 07, 2012 Rise Set
Actual Time 6:50 AM CDT 7:45 PM CDT
Civil Twilight 6:20 AM CDT 8:15 PM CDT
Nautical Twilight 5:44 AM CDT 8:51 PM CDT
Astronomical Twilight 5:06 AM CDT 9:28 PM CDT
Moon 11:22 PM CDT (9/7) 2:02 PM CDT (9/7)
Length of Visible Light 13h 55m
Length of Day
12h 55m
Waning Gibbous, 58% of the Moon is Illuminated
Sep 7
Waning Gibbous
Sep 8
Last Quarter
Sep 15
New
Sep 22
First Quarter
Sep 29
Full

Hourly Weather History & Observations

Time (CDT) Temp. Dew Point Humidity Pressure Visibility Wind Dir Wind Speed Gust Speed Precip Events Conditions
12:15 AM 64.4 °F 53.6 °F 68% 29.95 in 10.0 mi NNE 12.7 mph - N/A   Mostly Cloudy
12:36 AM 62.6 °F 53.6 °F 72% 29.95 in 10.0 mi NNE 10.4 mph 16.1 mph N/A   Scattered Clouds
12:55 AM 62.6 °F 53.6 °F 72% 29.95 in 10.0 mi NNE 12.7 mph 19.6 mph N/A   Clear
1:15 AM 62.6 °F 53.6 °F 72% 29.95 in 10.0 mi NNE 13.8 mph 18.4 mph N/A   Mostly Cloudy
1:35 AM 62.6 °F 53.6 °F 72% 29.95 in 10.0 mi NNE 12.7 mph - N/A   Scattered Clouds
1:55 AM 62.6 °F 53.6 °F 72% 29.95 in 10.0 mi NNE 11.5 mph - N/A Thunderstorm Thunderstorm
2:15 AM 60.8 °F 51.8 °F 72% 29.95 in 10.0 mi NNE 10.4 mph - N/A   Scattered Clouds
2:36 AM 60.8 °F 53.6 °F 77% 29.95 in 10.0 mi NNE 5.8 mph - N/A   Scattered Clouds
2:55 AM 60.8 °F 51.8 °F 72% 29.94 in 10.0 mi NNE 10.4 mph - N/A   Clear
3:15 AM 60.8 °F 51.8 °F 72% 29.94 in 10.0 mi NNE 11.5 mph - N/A   Scattered Clouds
3:36 AM 60.8 °F 53.6 °F 77% 29.95 in 10.0 mi North 6.9 mph - N/A   Overcast
3:55 AM 60.8 °F 53.6 °F 77% 29.95 in 10.0 mi North 10.4 mph - N/A   Overcast
4:15 AM 60.8 °F 53.6 °F 77% 29.96 in 10.0 mi North 5.8 mph - N/A   Overcast
4:35 AM 60.8 °F 53.6 °F 77% 29.97 in 10.0 mi North 6.9 mph - N/A   Overcast
4:55 AM 60.8 °F 53.6 °F 77% 29.98 in 10.0 mi NNW 8.1 mph - N/A   Overcast
5:15 AM 60.8 °F 53.6 °F 77% 29.99 in 10.0 mi North 5.8 mph - N/A   Overcast
5:35 AM 59.0 °F 51.8 °F 77% 30.00 in 10.0 mi North 6.9 mph - N/A   Mostly Cloudy
5:55 AM 57.2 °F 51.8 °F 82% 30.01 in 10.0 mi North 6.9 mph - N/A   Scattered Clouds
6:15 AM 57.2 °F 51.8 °F 82% 30.01 in 10.0 mi North 5.8 mph - N/A   Clear
6:35 AM 57.2 °F 51.8 °F 82% 30.02 in 10.0 mi NNW 5.8 mph - N/A   Clear
6:55 AM 57.2 °F 51.8 °F 82% 30.03 in 10.0 mi NNW 8.1 mph - N/A   Clear
7:15 AM 55.4 °F 51.8 °F 88% 30.04 in 10.0 mi NW 4.6 mph - N/A   Clear
7:35 AM 55.4 °F 51.8 °F 88% 30.04 in 10.0 mi NW 3.5 mph - N/A   Clear
7:55 AM 55.4 °F 51.8 °F 88% 30.05 in 10.0 mi NW 3.5 mph - N/A   Clear
8:15 AM 57.2 °F 53.6 °F 88% 30.05 in 10.0 mi NNW 4.6 mph - N/A   Clear
8:35 AM 59.0 °F 53.6 °F 82% 30.06 in 10.0 mi NW 6.9 mph - N/A   Clear
8:55 AM 60.8 °F 51.8 °F 72% 30.05 in 10.0 mi North 5.8 mph - N/A   Clear
9:15 AM 62.6 °F 50.0 °F 63% 30.05 in 10.0 mi NNW 10.4 mph - N/A   Clear
9:35 AM 62.6 °F 48.2 °F 59% 30.06 in 10.0 mi NNW 10.4 mph - N/A   Clear
9:55 AM 64.4 °F 48.2 °F 56% 30.05 in 10.0 mi NNW 10.4 mph 16.1 mph N/A   Scattered Clouds
10:15 AM 64.4 °F 48.2 °F 56% 30.06 in 10.0 mi North 12.7 mph 20.7 mph N/A   Scattered Clouds
10:35 AM 64.4 °F 46.4 °F 52% 30.06 in 10.0 mi NNW 16.1 mph - N/A   Clear
10:55 AM 66.2 °F 46.4 °F 49% 30.06 in 10.0 mi North 17.3 mph 20.7 mph N/A   Scattered Clouds
11:15 AM 66.2 °F 46.4 °F 49% 30.06 in 10.0 mi North 13.8 mph - N/A   Clear
11:35 AM 66.2 °F 46.4 °F 49% 30.06 in 10.0 mi NNW 10.4 mph 17.3 mph N/A   Scattered Clouds
11:55 AM 68.0 °F 42.8 °F 40% 30.05 in 10.0 mi North 15.0 mph - N/A   Scattered Clouds
12:16 PM 66.2 °F 42.8 °F 43% 30.05 in 10.0 mi NNW 16.1 mph 20.7 mph N/A   Scattered Clouds
12:35 PM 68.0 °F 42.8 °F 40% 30.05 in 10.0 mi NNW 16.1 mph 20.7 mph N/A   Scattered Clouds
12:55 PM 68.0 °F 42.8 °F 40% 30.05 in 10.0 mi North 16.1 mph 21.9 mph N/A   Scattered Clouds
1:16 PM 69.8 °F 39.2 °F 33% 30.05 in 10.0 mi NW 16.1 mph 23.0 mph N/A   Scattered Clouds
1:35 PM 69.8 °F 41.0 °F 35% 30.05 in 10.0 mi NW 19.6 mph 23.0 mph N/A   Scattered Clouds
1:55 PM 68.0 °F 39.2 °F 35% 30.05 in 10.0 mi NNW 20.7 mph - N/A   Scattered Clouds
2:16 PM 69.8 °F 39.2 °F 33% 30.05 in 10.0 mi North 19.6 mph 26.5 mph N/A   Scattered Clouds
2:40 PM 66.2 °F 39.2 °F 37% 30.05 in 10.0 mi NW 23.0 mph 26.5 mph N/A   Scattered Clouds
3:00 PM 68.0 °F 39.2 °F 35% 30.05 in 10.0 mi NW 20.7 mph 29.9 mph N/A   Clear
3:16 PM 69.8 °F 37.4 °F 31% 30.05 in 10.0 mi NW 23.0 mph 32.2 mph N/A   Clear
3:35 PM 68.0 °F 35.6 °F 30% 30.06 in 10.0 mi NNW 18.4 mph 28.8 mph N/A   Scattered Clouds
3:55 PM 69.8 °F 37.4 °F 31% 30.06 in 10.0 mi NNW 18.4 mph 26.5 mph N/A   Clear
4:16 PM 69.8 °F 37.4 °F 31% 30.06 in 10.0 mi NNW 19.6 mph 27.6 mph N/A   Clear
4:55 PM 66.2 °F 39.2 °F 37% 30.06 in 10.0 mi NW 17.3 mph 21.9 mph N/A   Scattered Clouds
5:16 PM 66.2 °F 39.2 °F 37% 30.07 in 10.0 mi NW 17.3 mph 21.9 mph N/A   Scattered Clouds
5:35 PM 66.2 °F 39.2 °F 37% 30.06 in 10.0 mi NNW 16.1 mph - N/A   Scattered Clouds
5:55 PM 66.2 °F 39.2 °F 37% 30.07 in 10.0 mi NNW 16.1 mph - N/A   Scattered Clouds
6:16 PM 66.2 °F 37.4 °F 35% 30.07 in 10.0 mi NNW 18.4 mph - N/A   Scattered Clouds
6:35 PM 66.2 °F 39.2 °F 37% 30.07 in 10.0 mi NW 18.4 mph - N/A   Scattered Clouds
6:55 PM 64.4 °F 39.2 °F 40% 30.07 in 10.0 mi NNW 15.0 mph 25.3 mph N/A   Scattered Clouds
7:16 PM 64.4 °F 41.0 °F 42% 30.07 in 10.0 mi North 11.5 mph - N/A   Scattered Clouds
7:35 PM 62.6 °F 42.8 °F 48% 30.07 in 10.0 mi North 11.5 mph - N/A   Scattered Clouds
7:55 PM 62.6 °F 42.8 °F 48% 30.07 in 10.0 mi NNW 9.2 mph - N/A   Scattered Clouds
8:16 PM 59.0 °F 42.8 °F 55% 30.08 in 10.0 mi NNW 5.8 mph - N/A   Clear
8:35 PM 57.2 °F 42.8 °F 59% 30.08 in 10.0 mi NNW 6.9 mph - N/A   Clear
8:55 PM 55.4 °F 42.8 °F 63% 30.09 in 10.0 mi North 4.6 mph - N/A   Clear
9:15 PM 55.4 °F 42.8 °F 63% 30.09 in 10.0 mi NNW 5.8 mph - N/A   Clear
9:35 PM 53.6 °F 42.8 °F 67% 30.09 in 10.0 mi NW 4.6 mph - N/A   Clear
9:56 PM 53.6 °F 42.8 °F 67% 30.09 in 10.0 mi NW 4.6 mph - N/A   Clear
10:15 PM 51.8 °F 42.8 °F 71% 30.09 in 10.0 mi NW 4.6 mph - N/A   Clear
10:35 PM 51.8 °F 42.8 °F 71% 30.09 in 10.0 mi NW 5.8 mph - N/A   Clear
10:56 PM 51.8 °F 42.8 °F 71% 30.10 in 10.0 mi NW 4.6 mph - N/A   Clear
11:35 PM 50.0 °F 42.8 °F 76% 30.10 in 10.0 mi NW 3.5 mph - N/A   Clear
11:56 PM 48.2 °F 42.8 °F 82% 30.10 in 10.0 mi Calm Calm - N/A   Clear